sensor_id;sensor_type;location;lat;lon;timestamp;pressure;altitude;pressure_sealevel;temperature;humidity
64211;BME280;50528;48.514;14.394;2023-04-29T00:00:01;93519.14;;;10.80;96.53
64211;BME280;50528;48.514;14.394;2023-04-29T00:01:03;93525.59;;;10.79;96.60
64211;BME280;50528;48.514;14.394;2023-04-29T00:01:37;93521.55;;;10.78;96.62
64211;BME280;50528;48.514;14.394;2023-04-29T00:02:11;93523.60;;;10.78;96.73
64211;BME280;50528;48.514;14.394;2023-04-29T00:02:44;93525.11;;;10.88;96.84
64211;BME280;50528;48.514;14.394;2023-04-29T00:03:18;93527.48;;;10.87;96.48
64211;BME280;50528;48.514;14.394;2023-04-29T00:03:52;93527.32;;;10.86;96.59
64211;BME280;50528;48.514;14.394;2023-04-29T00:04:26;93525.18;;;10.88;96.58
64211;BME280;50528;48.514;14.394;2023-04-29T00:05:00;93522.71;;;10.87;96.53
64211;BME280;50528;48.514;14.394;2023-04-29T00:05:37;93523.77;;;10.88;96.57
64211;BME280;50528;48.514;14.394;2023-04-29T00:06:11;93523.80;;;10.86;96.50
64211;BME280;50528;48.514;14.394;2023-04-29T00:06:46;93524.50;;;10.88;96.70
64211;BME280;50528;48.514;14.394;2023-04-29T00:07:20;93522.18;;;10.88;96.65
64211;BME280;50528;48.514;14.394;2023-04-29T00:07:54;93521.98;;;10.88;96.55
64211;BME280;50528;48.514;14.394;2023-04-29T00:08:27;93522.60;;;10.88;96.63
64211;BME280;50528;48.514;14.394;2023-04-29T00:09:01;93525.93;;;10.93;96.59
64211;BME280;50528;48.514;14.394;2023-04-29T00:09:37;93520.78;;;10.93;96.17
64211;BME280;50528;48.514;14.394;2023-04-29T00:10:11;93519.18;;;10.90;96.41
64211;BME280;50528;48.514;14.394;2023-04-29T00:10:47;93518.61;;;10.90;96.32
64211;BME280;50528;48.514;14.394;2023-04-29T00:11:20;93517.52;;;10.93;96.57
64211;BME280;50528;48.514;14.394;2023-04-29T00:11:53;93519.37;;;10.93;96.39
64211;BME280;50528;48.514;14.394;2023-04-29T00:12:27;93515.83;;;10.92;96.41
64211;BME280;50528;48.514;14.394;2023-04-29T00:13:04;93516.72;;;10.89;96.33
64211;BME280;50528;48.514;14.394;2023-04-29T00:13:41;93514.41;;;10.91;96.44
64211;BME280;50528;48.514;14.394;2023-04-29T00:14:19;93514.88;;;10.99;96.38
64211;BME280;50528;48.514;14.394;2023-04-29T00:14:53;93513.11;;;10.95;96.27
64211;BME280;50528;48.514;14.394;2023-04-29T00:15:26;93513.84;;;10.93;96.28
64211;BME280;50528;48.514;14.394;2023-04-29T00:16:00;93512.32;;;10.93;96.22
64211;BME280;50528;48.514;14.394;2023-04-29T00:16:35;93510.55;;;10.95;96.44
64211;BME280;50528;48.514;14.394;2023-04-29T00:17:09;93512.95;;;10.97;96.42
64211;BME280;50528;48.514;14.394;2023-04-29T00:17:43;93512.27;;;10.96;96.34
64211;BME280;50528;48.514;14.394;2023-04-29T00:18:17;93513.64;;;10.96;96.17
64211;BME280;50528;48.514;14.394;2023-04-29T00:18:54;93513.28;;;10.94;96.11
64211;BME280;50528;48.514;14.394;2023-04-29T00:19:27;93507.33;;;10.96;96.19
64211;BME280;50528;48.514;14.394;2023-04-29T00:20:02;93505.44;;;10.97;96.05
64211;BME280;50528;48.514;14.394;2023-04-29T00:20:36;93507.17;;;10.96;96.12
64211;BME280;50528;48.514;14.394;2023-04-29T00:21:11;93506.55;;;10.99;95.95
64211;BME280;50528;48.514;14.394;2023-04-29T00:21:45;93513.36;;;11.04;95.67
64211;BME280;50528;48.514;14.394;2023-04-29T00:22:20;93508.09;;;11.00;95.60
64211;BME280;50528;48.514;14.394;2023-04-29T00:22:55;93507.48;;;10.97;95.72
64211;BME280;50528;48.514;14.394;2023-04-29T00:23:28;93505.11;;;10.96;95.87
64211;BME280;50528;48.514;14.394;2023-04-29T00:24:05;93504.55;;;10.95;95.89
64211;BME280;50528;48.514;14.394;2023-04-29T00:24:38;93502.48;;;10.97;95.85
64211;BME280;50528;48.514;14.394;2023-04-29T00:25:12;93503.51;;;10.98;95.80
64211;BME280;50528;48.514;14.394;2023-04-29T00:25:48;93503.44;;;10.97;95.78
64211;BME280;50528;48.514;14.394;2023-04-29T00:26:24;93505.70;;;10.98;95.77
64211;BME280;50528;48.514;14.394;2023-04-29T00:26:58;93503.81;;;10.97;95.71
64211;BME280;50528;48.514;14.394;2023-04-29T00:27:32;93500.23;;;10.98;95.75
64211;BME280;50528;48.514;14.394;2023-04-29T00:28:05;93504.44;;;10.98;95.70
64211;BME280;50528;48.514;14.394;2023-04-29T00:28:39;93504.50;;;10.98;95.80
64211;BME280;50528;48.514;14.394;2023-04-29T00:29:15;93502.05;;;11.04;95.64
64211;BME280;50528;48.514;14.394;2023-04-29T00:29:49;93497.63;;;11.01;95.59
64211;BME280;50528;48.514;14.394;2023-04-29T00:30:22;93499.73;;;11.00;95.62
64211;BME280;50528;48.514;14.394;2023-04-29T00:30:56;93503.24;;;10.99;95.49
64211;BME280;50528;48.514;14.394;2023-04-29T00:31:30;93500.72;;;10.98;95.46
64211;BME280;50528;48.514;14.394;2023-04-29T00:32:06;93500.88;;;10.98;95.63
64211;BME280;50528;48.514;14.394;2023-04-29T00:32:39;93503.30;;;10.99;95.38
64211;BME280;50528;48.514;14.394;2023-04-29T00:33:13;93502.24;;;10.99;95.48
64211;BME280;50528;48.514;14.394;2023-04-29T00:33:46;93499.09;;;10.98;95.38
64211;BME280;50528;48.514;14.394;2023-04-29T00:34:20;93503.56;;;10.99;95.38
64211;BME280;50528;48.514;14.394;2023-04-29T00:34:54;93503.03;;;10.99;95.26
64211;BME280;50528;48.514;14.394;2023-04-29T00:35:29;93504.77;;;10.98;95.22
64211;BME280;50528;48.514;14.394;2023-04-29T00:36:03;93501.66;;;10.98;95.26
64211;BME280;50528;48.514;14.394;2023-04-29T00:36:36;93501.96;;;10.97;95.06
64211;BME280;50528;48.514;14.394;2023-04-29T00:37:10;93504.55;;;10.97;95.16
64211;BME280;50528;48.514;14.394;2023-04-29T00:37:43;93500.86;;;10.96;94.98
64211;BME280;50528;48.514;14.394;2023-04-29T00:38:17;93507.49;;;10.97;94.91
64211;BME280;50528;48.514;14.394;2023-04-29T00:38:51;93505.75;;;10.94;94.78
64211;BME280;50528;48.514;14.394;2023-04-29T00:39:24;93499.80;;;10.93;94.80
64211;BME280;50528;48.514;14.394;2023-04-29T00:39:58;93504.55;;;10.94;94.86
64211;BME280;50528;48.514;14.394;2023-04-29T00:40:32;93497.85;;;10.91;94.73
64211;BME280;50528;48.514;14.394;2023-04-29T00:41:05;93502.91;;;10.96;94.63
64211;BME280;50528;48.514;14.394;2023-04-29T00:41:39;93501.30;;;11.01;94.30
64211;BME280;50528;48.514;14.394;2023-04-29T00:42:13;93501.76;;;10.94;94.21
64211;BME280;50528;48.514;14.394;2023-04-29T00:42:46;93502.38;;;10.94;93.97
64211;BME280;50528;48.514;14.394;2023-04-29T00:43:20;93499.42;;;10.89;94.06
64211;BME280;50528;48.514;14.394;2023-04-29T00:43:53;93501.31;;;10.89;94.23
64211;BME280;50528;48.514;14.394;2023-04-29T00:44:27;93501.45;;;10.86;94.19
64211;BME280;50528;48.514;14.394;2023-04-29T00:45:00;93496.34;;;10.85;94.29
64211;BME280;50528;48.514;14.394;2023-04-29T00:45:34;93501.55;;;10.86;94.18
64211;BME280;50528;48.514;14.394;2023-04-29T00:46:08;93504.88;;;10.87;94.06
64211;BME280;50528;48.514;14.394;2023-04-29T00:46:42;93501.91;;;10.84;93.88
64211;BME280;50528;48.514;14.394;2023-04-29T00:47:17;93499.27;;;10.80;93.94
64211;BME280;50528;48.514;14.394;2023-04-29T00:47:51;93497.99;;;10.79;93.80
64211;BME280;50528;48.514;14.394;2023-04-29T00:48:25;93497.58;;;10.77;93.86
64211;BME280;50528;48.514;14.394;2023-04-29T00:48:59;93498.73;;;10.77;93.79
64211;BME280;50528;48.514;14.394;2023-04-29T00:49:37;93495.67;;;10.76;93.65
64211;BME280;50528;48.514;14.394;2023-04-29T00:50:11;93496.05;;;10.77;93.68
64211;BME280;50528;48.514;14.394;2023-04-29T00:50:45;93499.34;;;10.74;93.61
64211;BME280;50528;48.514;14.394;2023-04-29T00:51:22;93497.55;;;10.72;93.52
64211;BME280;50528;48.514;14.394;2023-04-29T00:51:57;93498.16;;;10.69;93.56
64211;BME280;50528;48.514;14.394;2023-04-29T00:52:31;93498.41;;;10.68;93.52
64211;BME280;50528;48.514;14.394;2023-04-29T00:53:05;93496.94;;;10.67;93.53
64211;BME280;50528;48.514;14.394;2023-04-29T00:53:39;93494.09;;;10.67;93.47
64211;BME280;50528;48.514;14.394;2023-04-29T00:54:17;93496.98;;;10.65;93.25
64211;BME280;50528;48.514;14.394;2023-04-29T00:54:51;93498.04;;;10.64;93.20
64211;BME280;50528;48.514;14.394;2023-04-29T00:55:25;93498.29;;;10.64;93.15
64211;BME280;50528;48.514;14.394;2023-04-29T00:56:01;93498.17;;;10.60;92.79
64211;BME280;50528;48.514;14.394;2023-04-29T00:56:35;93491.67;;;10.56;92.72
64211;BME280;50528;48.514;14.394;2023-04-29T00:57:10;93497.72;;;10.55;92.76
64211;BME280;50528;48.514;14.394;2023-04-29T00:57:44;93499.17;;;10.51;92.77
64211;BME280;50528;48.514;14.394;2023-04-29T00:58:23;93500.73;;;10.50;92.65
64211;BME280;50528;48.514;14.394;2023-04-29T00:59:02;93500.30;;;10.47;92.47
64211;BME280;50528;48.514;14.394;2023-04-29T00:59:37;93501.80;;;10.44;92.45
64211;BME280;50528;48.514;14.394;2023-04-29T01:00:13;93500.65;;;10.42;92.40
64211;BME280;50528;48.514;14.394;2023-04-29T01:00:48;93499.31;;;10.40;92.38
64211;BME280;50528;48.514;14.394;2023-04-29T01:01:22;93496.48;;;10.39;92.42
64211;BME280;50528;48.514;14.394;2023-04-29T01:01:59;93497.71;;;10.38;92.19
64211;BME280;50528;48.514;14.394;2023-04-29T01:02:45;93498.02;;;10.34;92.05
64211;BME280;50528;48.514;14.394;2023-04-29T01:03:39;93494.69;;;10.32;91.93
64211;BME280;50528;48.514;14.394;2023-04-29T01:04:13;93495.17;;;10.26;91.90
64211;BME280;50528;48.514;14.394;2023-04-29T01:04:48;93495.02;;;10.23;92.05
64211;BME280;50528;48.514;14.394;2023-04-29T01:05:27;93496.91;;;10.24;92.00
64211;BME280;50528;48.514;14.394;2023-04-29T01:06:35;93496.92;;;10.21;91.98
64211;BME280;50528;48.514;14.394;2023-04-29T01:07:17;93494.89;;;10.13;91.77
64211;BME280;50528;48.514;14.394;2023-04-29T01:08:02;93499.57;;;10.12;91.82
64211;BME280;50528;48.514;14.394;2023-04-29T01:08:54;93499.84;;;10.08;91.68
64211;BME280;50528;48.514;14.394;2023-04-29T01:10:33;93500.77;;;9.98;91.83
64211;BME280;50528;48.514;14.394;2023-04-29T01:11:10;93499.55;;;9.95;91.78
64211;BME280;50528;48.514;14.394;2023-04-29T01:12:45;93501.27;;;9.93;91.93
64211;BME280;50528;48.514;14.394;2023-04-29T01:13:41;93502.92;;;9.92;92.13
64211;BME280;50528;48.514;14.394;2023-04-29T01:14:16;93497.66;;;9.83;91.98
64211;BME280;50528;48.514;14.394;2023-04-29T01:15:09;93506.80;;;9.85;91.84
64211;BME280;50528;48.514;14.394;2023-04-29T01:16:06;93509.53;;;9.83;92.02
64211;BME280;50528;48.514;14.394;2023-04-29T01:16:50;93507.11;;;9.78;91.95
64211;BME280;50528;48.514;14.394;2023-04-29T01:17:24;93510.11;;;9.77;92.15
64211;BME280;50528;48.514;14.394;2023-04-29T01:18:11;93507.74;;;9.72;92.05
64211;BME280;50528;48.514;14.394;2023-04-29T01:18:54;93511.84;;;9.72;92.15
64211;BME280;50528;48.514;14.394;2023-04-29T01:19:44;93508.69;;;9.70;92.00
64211;BME280;50528;48.514;14.394;2023-04-29T01:20:21;93509.13;;;9.69;91.95
64211;BME280;50528;48.514;14.394;2023-04-29T01:20:57;93502.82;;;9.68;92.00
64211;BME280;50528;48.514;14.394;2023-04-29T01:21:32;93502.77;;;9.68;92.03
64211;BME280;50528;48.514;14.394;2023-04-29T01:22:05;93501.52;;;9.68;92.09
64211;BME280;50528;48.514;14.394;2023-04-29T01:22:40;93499.09;;;9.67;92.05
64211;BME280;50528;48.514;14.394;2023-04-29T01:23:14;93498.17;;;9.69;92.14
64211;BME280;50528;48.514;14.394;2023-04-29T01:23:47;93496.33;;;9.68;91.96
64211;BME280;50528;48.514;14.394;2023-04-29T01:24:30;93494.31;;;9.67;92.00
64211;BME280;50528;48.514;14.394;2023-04-29T01:25:04;93493.27;;;9.66;91.97
64211;BME280;50528;48.514;14.394;2023-04-29T01:25:46;93493.39;;;9.63;91.99
64211;BME280;50528;48.514;14.394;2023-04-29T01:26:31;93493.91;;;9.62;92.06
64211;BME280;50528;48.514;14.394;2023-04-29T01:28:45;93487.52;;;9.53;91.88
64211;BME280;50528;48.514;14.394;2023-04-29T01:31:31;93491.44;;;9.51;92.20
64211;BME280;50528;48.514;14.394;2023-04-29T01:32:14;93491.82;;;9.46;92.05
64211;BME280;50528;48.514;14.394;2023-04-29T01:32:57;93497.58;;;9.45;92.01
64211;BME280;50528;48.514;14.394;2023-04-29T01:34:42;93493.70;;;9.40;91.77
64211;BME280;50528;48.514;14.394;2023-04-29T01:35:41;93495.81;;;9.36;91.52
64211;BME280;50528;48.514;14.394;2023-04-29T01:37:36;93499.37;;;9.30;91.86
64211;BME280;50528;48.514;14.394;2023-04-29T01:38:26;93494.17;;;9.28;91.83
64211;BME280;50528;48.514;14.394;2023-04-29T01:39:45;93492.02;;;9.24;91.97
64211;BME280;50528;48.514;14.394;2023-04-29T01:41:12;93489.87;;;9.25;91.56
64211;BME280;50528;48.514;14.394;2023-04-29T01:41:50;93493.98;;;9.11;91.50
64211;BME280;50528;48.514;14.394;2023-04-29T01:42:45;93495.45;;;9.09;91.56
64211;BME280;50528;48.514;14.394;2023-04-29T01:43:23;93492.95;;;9.07;91.68
64211;BME280;50528;48.514;14.394;2023-04-29T01:44:01;93497.20;;;9.04;91.62
64211;BME280;50528;48.514;14.394;2023-04-29T01:44:37;93497.00;;;9.04;91.70
64211;BME280;50528;48.514;14.394;2023-04-29T01:45:15;93498.05;;;9.05;91.71
64211;BME280;50528;48.514;14.394;2023-04-29T01:45:51;93501.13;;;9.04;91.53
64211;BME280;50528;48.514;14.394;2023-04-29T01:46:27;93499.91;;;8.98;91.38
64211;BME280;50528;48.514;14.394;2023-04-29T01:47:03;93499.35;;;8.94;91.38
64211;BME280;50528;48.514;14.394;2023-04-29T01:47:45;93498.02;;;8.93;91.58
64211;BME280;50528;48.514;14.394;2023-04-29T01:48:20;93496.39;;;8.93;91.76
64211;BME280;50528;48.514;14.394;2023-04-29T01:48:54;93496.57;;;8.94;91.74
64211;BME280;50528;48.514;14.394;2023-04-29T01:51:02;93496.43;;;8.93;91.74
64211;BME280;50528;48.514;14.394;2023-04-29T01:51:36;93492.23;;;8.86;91.71
64211;BME280;50528;48.514;14.394;2023-04-29T01:52:09;93489.75;;;8.85;91.81
64211;BME280;50528;48.514;14.394;2023-04-29T01:52:42;93491.67;;;8.85;91.72
64211;BME280;50528;48.514;14.394;2023-04-29T01:53:14;93490.11;;;8.85;91.77
64211;BME280;50528;48.514;14.394;2023-04-29T01:53:47;93492.69;;;8.86;91.71
64211;BME280;50528;48.514;14.394;2023-04-29T01:54:20;93493.69;;;8.86;91.81
64211;BME280;50528;48.514;14.394;2023-04-29T01:54:56;93495.35;;;8.85;91.70
64211;BME280;50528;48.514;14.394;2023-04-29T01:55:29;93492.06;;;8.86;91.80
64211;BME280;50528;48.514;14.394;2023-04-29T01:56:27;93494.11;;;8.81;91.57
64211;BME280;50528;48.514;14.394;2023-04-29T01:57:07;93498.31;;;8.79;91.64
64211;BME280;50528;48.514;14.394;2023-04-29T01:57:49;93496.98;;;8.77;91.66
64211;BME280;50528;48.514;14.394;2023-04-29T01:58:33;93501.91;;;8.77;91.65
64211;BME280;50528;48.514;14.394;2023-04-29T01:59:16;93504.06;;;8.77;91.68
64211;BME280;50528;48.514;14.394;2023-04-29T02:00:26;93507.58;;;8.69;91.61
64211;BME280;50528;48.514;14.394;2023-04-29T02:00:59;93502.33;;;8.68;91.63
64211;BME280;50528;48.514;14.394;2023-04-29T02:01:31;93505.54;;;8.69;91.74
64211;BME280;50528;48.514;14.394;2023-04-29T02:02:03;93501.88;;;8.70;91.78
64211;BME280;50528;48.514;14.394;2023-04-29T02:02:36;93505.46;;;8.71;91.70
64211;BME280;50528;48.514;14.394;2023-04-29T02:03:16;93508.50;;;8.71;91.68
64211;BME280;50528;48.514;14.394;2023-04-29T02:03:51;93507.96;;;8.70;91.60
64211;BME280;50528;48.514;14.394;2023-04-29T02:04:24;93505.91;;;8.70;91.59
64211;BME280;50528;48.514;14.394;2023-04-29T02:04:59;93505.64;;;8.69;91.60
64211;BME280;50528;48.514;14.394;2023-04-29T02:05:31;93505.73;;;8.69;91.60
64211;BME280;50528;48.514;14.394;2023-04-29T02:06:05;93503.70;;;8.70;91.58
64211;BME280;50528;48.514;14.394;2023-04-29T02:06:40;93500.92;;;8.69;91.41
64211;BME280;50528;48.514;14.394;2023-04-29T02:07:12;93500.39;;;8.68;91.39
64211;BME280;50528;48.514;14.394;2023-04-29T02:07:45;93502.69;;;8.68;91.40
64211;BME280;50528;48.514;14.394;2023-04-29T02:08:18;93503.20;;;8.67;91.36
64211;BME280;50528;48.514;14.394;2023-04-29T02:08:51;93502.64;;;8.68;91.31
64211;BME280;50528;48.514;14.394;2023-04-29T02:09:26;93505.41;;;8.69;91.22
64211;BME280;50528;48.514;14.394;2023-04-29T02:10:01;93506.63;;;8.69;91.18
64211;BME280;50528;48.514;14.394;2023-04-29T02:10:37;93508.05;;;8.70;91.19
64211;BME280;50528;48.514;14.394;2023-04-29T02:11:24;93507.69;;;8.64;90.68
64211;BME280;50528;48.514;14.394;2023-04-29T02:11:58;93507.19;;;8.59;90.76
64211;BME280;50528;48.514;14.394;2023-04-29T02:12:30;93510.85;;;8.58;90.83
64211;BME280;50528;48.514;14.394;2023-04-29T02:13:03;93507.72;;;8.56;90.93
64211;BME280;50528;48.514;14.394;2023-04-29T02:13:35;93506.17;;;8.55;90.85
64211;BME280;50528;48.514;14.394;2023-04-29T02:14:07;93507.17;;;8.54;90.97
64211;BME280;50528;48.514;14.394;2023-04-29T02:14:39;93505.65;;;8.53;91.09
64211;BME280;50528;48.514;14.394;2023-04-29T02:15:12;93498.80;;;8.50;91.01
64211;BME280;50528;48.514;14.394;2023-04-29T02:15:44;93503.67;;;8.54;91.10
64211;BME280;50528;48.514;14.394;2023-04-29T02:16:16;93503.51;;;8.55;90.97
64211;BME280;50528;48.514;14.394;2023-04-29T02:16:54;93501.27;;;8.56;90.91
64211;BME280;50528;48.514;14.394;2023-04-29T02:17:27;93502.29;;;8.54;90.97
64211;BME280;50528;48.514;14.394;2023-04-29T02:17:59;93500.13;;;8.55;90.92
64211;BME280;50528;48.514;14.394;2023-04-29T02:18:31;93499.80;;;8.58;90.81
64211;BME280;50528;48.514;14.394;2023-04-29T02:19:03;93502.93;;;8.58;90.72
64211;BME280;50528;48.514;14.394;2023-04-29T02:19:35;93506.89;;;8.59;90.79
64211;BME280;50528;48.514;14.394;2023-04-29T02:20:08;93507.16;;;8.61;90.62
64211;BME280;50528;48.514;14.394;2023-04-29T02:20:41;93500.02;;;8.60;90.66
64211;BME280;50528;48.514;14.394;2023-04-29T02:21:13;93499.64;;;8.58;90.75
64211;BME280;50528;48.514;14.394;2023-04-29T02:21:48;93500.98;;;8.57;90.75
64211;BME280;50528;48.514;14.394;2023-04-29T02:22:22;93500.39;;;8.56;90.88
64211;BME280;50528;48.514;14.394;2023-04-29T02:22:55;93501.91;;;8.56;91.00
64211;BME280;50528;48.514;14.394;2023-04-29T02:23:27;93497.89;;;8.57;90.99
64211;BME280;50528;48.514;14.394;2023-04-29T02:24:00;93497.77;;;8.59;91.17
64211;BME280;50528;48.514;14.394;2023-04-29T02:24:32;93498.20;;;8.62;91.21
64211;BME280;50528;48.514;14.394;2023-04-29T02:25:05;93499.85;;;8.63;91.21
64211;BME280;50528;48.514;14.394;2023-04-29T02:25:37;93497.86;;;8.63;91.16
64211;BME280;50528;48.514;14.394;2023-04-29T02:26:09;93492.28;;;8.64;91.26
64211;BME280;50528;48.514;14.394;2023-04-29T02:26:42;93495.29;;;8.68;91.33
64211;BME280;50528;48.514;14.394;2023-04-29T02:27:17;93498.15;;;8.69;91.30
64211;BME280;50528;48.514;14.394;2023-04-29T02:27:50;93501.10;;;8.71;91.46
64211;BME280;50528;48.514;14.394;2023-04-29T02:28:22;93497.04;;;8.73;91.45
64211;BME280;50528;48.514;14.394;2023-04-29T02:28:55;93498.77;;;8.76;91.51
64211;BME280;50528;48.514;14.394;2023-04-29T02:29:28;93495.88;;;8.76;91.39
64211;BME280;50528;48.514;14.394;2023-04-29T02:30:02;93493.55;;;8.75;91.44
64211;BME280;50528;48.514;14.394;2023-04-29T02:30:38;93497.02;;;8.75;91.63
64211;BME280;50528;48.514;14.394;2023-04-29T02:31:11;93489.77;;;8.77;91.67
64211;BME280;50528;48.514;14.394;2023-04-29T02:31:44;93490.39;;;8.78;91.70
64211;BME280;50528;48.514;14.394;2023-04-29T02:32:16;93490.67;;;8.80;91.84
64211;BME280;50528;48.514;14.394;2023-04-29T02:32:50;93491.46;;;8.80;91.90
64211;BME280;50528;48.514;14.394;2023-04-29T02:33:23;93496.36;;;8.81;91.81
64211;BME280;50528;48.514;14.394;2023-04-29T02:33:56;93493.49;;;8.84;91.95
64211;BME280;50528;48.514;14.394;2023-04-29T02:34:28;93495.70;;;8.83;91.95
64211;BME280;50528;48.514;14.394;2023-04-29T02:35:02;93493.55;;;8.84;91.95
64211;BME280;50528;48.514;14.394;2023-04-29T02:35:34;93497.02;;;8.85;92.05
64211;BME280;50528;48.514;14.394;2023-04-29T02:36:07;93498.52;;;8.86;92.08
64211;BME280;50528;48.514;14.394;2023-04-29T02:36:39;93497.72;;;8.90;92.25
64211;BME280;50528;48.514;14.394;2023-04-29T02:37:11;93498.33;;;8.93;92.24
64211;BME280;50528;48.514;14.394;2023-04-29T02:37:44;93493.32;;;8.90;92.21
64211;BME280;50528;48.514;14.394;2023-04-29T02:38:16;93497.94;;;8.91;92.26
64211;BME280;50528;48.514;14.394;2023-04-29T02:38:48;93502.55;;;8.92;92.39
64211;BME280;50528;48.514;14.394;2023-04-29T02:39:21;93501.40;;;8.91;92.51
64211;BME280;50528;48.514;14.394;2023-04-29T02:39:54;93501.92;;;8.91;92.47
64211;BME280;50528;48.514;14.394;2023-04-29T02:40:26;93501.26;;;8.92;92.56
64211;BME280;50528;48.514;14.394;2023-04-29T02:40:59;93499.74;;;8.93;92.55
64211;BME280;50528;48.514;14.394;2023-04-29T02:41:31;93501.77;;;8.94;92.68
64211;BME280;50528;48.514;14.394;2023-04-29T02:42:03;93503.08;;;8.96;92.69
64211;BME280;50528;48.514;14.394;2023-04-29T02:42:35;93503.30;;;8.97;92.71
64211;BME280;50528;48.514;14.394;2023-04-29T02:43:09;93503.33;;;8.99;92.76
64211;BME280;50528;48.514;14.394;2023-04-29T02:43:41;93502.36;;;9.01;92.83
64211;BME280;50528;48.514;14.394;2023-04-29T02:44:14;93505.15;;;9.03;92.90
64211;BME280;50528;48.514;14.394;2023-04-29T02:44:47;93505.28;;;9.04;92.95
64211;BME280;50528;48.514;14.394;2023-04-29T02:45:19;93499.92;;;9.03;92.98
64211;BME280;50528;48.514;14.394;2023-04-29T02:45:52;93504.63;;;9.08;93.11
64211;BME280;50528;48.514;14.394;2023-04-29T02:46:24;93498.64;;;9.11;93.22
64211;BME280;50528;48.514;14.394;2023-04-29T02:46:57;93503.11;;;9.11;93.05
64211;BME280;50528;48.514;14.394;2023-04-29T02:47:29;93497.51;;;9.13;93.23
64211;BME280;50528;48.514;14.394;2023-04-29T02:48:01;93494.88;;;9.17;93.25
64211;BME280;50528;48.514;14.394;2023-04-29T02:48:34;93496.07;;;9.16;93.38
64211;BME280;50528;48.514;14.394;2023-04-29T02:49:11;93496.45;;;9.17;93.33
64211;BME280;50528;48.514;14.394;2023-04-29T02:49:43;93497.16;;;9.16;93.41
64211;BME280;50528;48.514;14.394;2023-04-29T02:50:16;93493.69;;;9.14;93.43
64211;BME280;50528;48.514;14.394;2023-04-29T02:50:48;93494.08;;;9.16;93.60
64211;BME280;50528;48.514;14.394;2023-04-29T02:51:21;93495.93;;;9.17;93.68
64211;BME280;50528;48.514;14.394;2023-04-29T02:51:53;93496.14;;;9.16;93.66
64211;BME280;50528;48.514;14.394;2023-04-29T02:52:26;93495.41;;;9.17;93.71
64211;BME280;50528;48.514;14.394;2023-04-29T02:52:58;93494.77;;;9.16;93.85
64211;BME280;50528;48.514;14.394;2023-04-29T02:53:31;93496.07;;;9.16;93.79
64211;BME280;50528;48.514;14.394;2023-04-29T02:54:03;93498.05;;;9.14;93.80
64211;BME280;50528;48.514;14.394;2023-04-29T02:54:36;93494.00;;;9.14;93.76
64211;BME280;50528;48.514;14.394;2023-04-29T02:55:09;93493.16;;;9.14;93.82
64211;BME280;50528;48.514;14.394;2023-04-29T02:55:41;93494.83;;;9.17;93.91
64211;BME280;50528;48.514;14.394;2023-04-29T02:56:15;93493.10;;;9.17;93.93
64211;BME280;50528;48.514;14.394;2023-04-29T02:56:47;93499.63;;;9.19;94.09
64211;BME280;50528;48.514;14.394;2023-04-29T02:57:20;93494.61;;;9.16;93.93
64211;BME280;50528;48.514;14.394;2023-04-29T02:57:52;93501.30;;;9.18;93.94
64211;BME280;50528;48.514;14.394;2023-04-29T02:58:25;93496.84;;;9.18;94.01
64211;BME280;50528;48.514;14.394;2023-04-29T02:58:57;93492.89;;;9.18;94.06
64211;BME280;50528;48.514;14.394;2023-04-29T02:59:29;93489.40;;;9.23;94.23
64211;BME280;50528;48.514;14.394;2023-04-29T03:00:02;93490.45;;;9.25;94.00
64211;BME280;50528;48.514;14.394;2023-04-29T03:00:39;93491.23;;;9.24;93.95
64211;BME280;50528;48.514;14.394;2023-04-29T03:01:13;93489.83;;;9.21;93.88
64211;BME280;50528;48.514;14.394;2023-04-29T03:01:45;93490.49;;;9.20;93.94
64211;BME280;50528;48.514;14.394;2023-04-29T03:02:18;93491.27;;;9.17;93.87
64211;BME280;50528;48.514;14.394;2023-04-29T03:02:52;93492.77;;;9.21;94.07
64211;BME280;50528;48.514;14.394;2023-04-29T03:03:25;93491.02;;;9.20;93.98
64211;BME280;50528;48.514;14.394;2023-04-29T03:03:58;93490.70;;;9.19;93.99
64211;BME280;50528;48.514;14.394;2023-04-29T03:04:30;93493.44;;;9.21;94.13
64211;BME280;50528;48.514;14.394;2023-04-29T03:05:04;93492.39;;;9.23;94.12
64211;BME280;50528;48.514;14.394;2023-04-29T03:05:39;93493.04;;;9.21;93.97
64211;BME280;50528;48.514;14.394;2023-04-29T03:06:11;93489.35;;;9.20;93.98
64211;BME280;50528;48.514;14.394;2023-04-29T03:06:44;93493.99;;;9.22;94.07
64211;BME280;50528;48.514;14.394;2023-04-29T03:07:17;93493.73;;;9.23;93.99
64211;BME280;50528;48.514;14.394;2023-04-29T03:07:49;93489.27;;;9.22;93.97
64211;BME280;50528;48.514;14.394;2023-04-29T03:08:22;93491.82;;;9.21;93.92
64211;BME280;50528;48.514;14.394;2023-04-29T03:08:55;93493.34;;;9.20;93.87
64211;BME280;50528;48.514;14.394;2023-04-29T03:09:28;93490.29;;;9.20;93.95
64211;BME280;50528;48.514;14.394;2023-04-29T03:10:01;93489.29;;;9.19;93.91
64211;BME280;50528;48.514;14.394;2023-04-29T03:10:36;93490.02;;;9.18;93.99
64211;BME280;50528;48.514;14.394;2023-04-29T03:11:12;93493.13;;;9.15;94.03
64211;BME280;50528;48.514;14.394;2023-04-29T03:11:45;93493.95;;;9.15;94.03
64211;BME280;50528;48.514;14.394;2023-04-29T03:12:18;93491.70;;;9.15;94.13
64211;BME280;50528;48.514;14.394;2023-04-29T03:12:50;93491.81;;;9.15;94.09
64211;BME280;50528;48.514;14.394;2023-04-29T03:13:22;93494.84;;;9.17;94.14
64211;BME280;50528;48.514;14.394;2023-04-29T03:13:56;93495.10;;;9.18;94.19
64211;BME280;50528;48.514;14.394;2023-04-29T03:14:28;93498.25;;;9.18;94.14
64211;BME280;50528;48.514;14.394;2023-04-29T03:15:01;93494.48;;;9.19;94.15
64211;BME280;50528;48.514;14.394;2023-04-29T03:15:33;93494.27;;;9.19;94.07
64211;BME280;50528;48.514;14.394;2023-04-29T03:16:06;93492.91;;;9.20;93.98
64211;BME280;50528;48.514;14.394;2023-04-29T03:16:38;93495.59;;;9.20;94.09
64211;BME280;50528;48.514;14.394;2023-04-29T03:17:11;93495.34;;;9.21;94.07
64211;BME280;50528;48.514;14.394;2023-04-29T03:17:44;93495.63;;;9.23;94.17